28. Mai 2022

Uhrzeit Code Wetter Temp. Sichtweite Wolkendecke Wind METAR/SPECI
5:30 pm
V
79 °F 6¼ mi+ - 300° 300° 13 kt METAR LFCK 281530Z AUTO 30013KT CAVOK 26/11 Q1014 NOSIG
5:00 pm
V
77 °F 6¼ mi+ - 300° 300° 14 kt METAR LFCK 281500Z AUTO 30014KT 270V330 CAVOK 25/11 Q1014 NOSIG
4:30 pm
V
77 °F 6¼ mi+ - 290° 290° 15 kt METAR LFCK 281430Z AUTO 29015KT CAVOK 25/12 Q1015 NOSIG
4:00 pm
V
75 °F 6¼ mi+ - 300° 300° 13 kt METAR LFCK 281400Z AUTO 30013KT 270V330 CAVOK 24/12 Q1015 NOSIG
3:30 pm
V
75 °F 6¼ mi+ - 290° 290° 13 kt METAR LFCK 281330Z AUTO 29013KT CAVOK 24/13 Q1015 NOSIG
3:00 pm
V
75 °F 6¼ mi+ - 290° 290° 13 kt METAR LFCK 281300Z AUTO 29013KT 260V320 9999 FEW039 24/13 Q1016 NOSIG
2:30 pm
V
73 °F 6¼ mi+ - 290° 290° 13 kt METAR LFCK 281230Z AUTO 29013KT 260V330 9999 FEW039 23/13 Q1016 NOSIG
2:00 pm
V
72 °F 6¼ mi+ - 300° 300° 11 kt METAR LFCK 281200Z AUTO 30011KT 260V340 9999 FEW035 22/13 Q1017 NOSIG
1:30 pm
V
72 °F 6¼ mi+ - 280° 280° 13 kt METAR LFCK 281130Z AUTO 28013KT 9999 FEW034 22/13 Q1017 NOSIG
1:00 pm
V
70 °F 6¼ mi+ - 290° 290° 13 kt METAR LFCK 281100Z AUTO 29013KT 260V320 9999 FEW033 21/13 Q1018 NOSIG
12:30 pm
V
70 °F 6¼ mi+ - 310° 310° 13 kt METAR LFCK 281030Z AUTO 31013KT 280V340 9999 FEW031 21/12 Q1018 NOSIG
12:00 pm
V
70 °F 6¼ mi+ - 300° 300° 13 kt METAR LFCK 281000Z AUTO 30013KT 9999 SCT029 21/12 Q1018 NOSIG
11:30 am
M
68 °F 6¼ mi+ 2.700 ft 310° 310° 13 kt METAR LFCK 280930Z AUTO 31013KT 280V340 9999 BKN027 20/12 Q1018 NOSIG
11:00 am
M
66 °F 6¼ mi+ 2.500 ft 320° 320° 9 kt METAR LFCK 280900Z AUTO 32009KT 280V350 9999 BKN025 19/13 Q1018 NOSIG
10:30 am
M
66 °F 6¼ mi+ 2.100 ft 290° 290° 7 kt METAR LFCK 280830Z AUTO 29007KT 260V320 9999 BKN021 19/13 Q1019 NOSIG
10:00 am
M
64 °F 6¼ mi+ 1.800 ft 290° 290° 6 kt METAR LFCK 280800Z AUTO 29006KT 250V320 9999 BKN018 18/13 Q1019 NOSIG
9:30 am
M
63 °F 6¼ mi+ 1.600 ft 300° 300° 8 kt METAR LFCK 280730Z AUTO 30008KT 270V340 9999 BKN016 17/12 Q1019 NOSIG
9:00 am
V
63 °F 6¼ mi+ - 290° 290° 9 kt METAR LFCK 280700Z AUTO 29009KT 9999 SCT015 17/12 Q1019 NOSIG
8:30 am
V
61 °F 6¼ mi+ - 290° 290° 9 kt METAR LFCK 280630Z AUTO 29009KT 9999 FEW014 16/12 Q1019 NOSIG
8:00 am
V
59 °F 6¼ mi+ - 340° 340° 3 kt METAR LFCK 280600Z AUTO 34003KT 260V020 CAVOK 15/12 Q1019 NOSIG
7:30 am
V
57 °F 6¼ mi+ - Var Var 1 kt METAR LFCK 280530Z AUTO VRB01KT CAVOK 14/12 Q1019 NOSIG
7:00 am
V
54 °F 6¼ mi+ - Var Var 2 kt METAR LFCK 280500Z AUTO VRB02KT CAVOK 12/11 Q1019
6:30 am
V
52 °F 6¼ mi+ - 010° 010° 3 kt METAR LFCK 280430Z AUTO 01003KT CAVOK 11/10 Q1019
6:00 am
V
52 °F 6¼ mi+ - Var Var 3 kt METAR LFCK 280400Z AUTO VRB03KT CAVOK 11/11 Q1019
5:30 am
V
54 °F 6¼ mi+ - 010° 010° 3 kt METAR LFCK 280330Z AUTO 01003KT CAVOK 12/10 Q1019
5:00 am
V
54 °F 6¼ mi+ - Var Var 2 kt METAR LFCK 280300Z AUTO VRB02KT CAVOK 12/11 Q1020
4:30 am
V
55 °F 6¼ mi+ - Var Var 2 kt METAR LFCK 280230Z AUTO VRB02KT CAVOK 13/11 Q1020
4:00 am
V
55 °F 6¼ mi+ - Var Var 2 kt METAR LFCK 280200Z AUTO VRB02KT CAVOK 13/11 Q1020
3:30 am
V
55 °F 6¼ mi+ - 010° 010° 2 kt METAR LFCK 280130Z AUTO 01002KT CAVOK 13/11 Q1020
3:00 am
V
57 °F 6¼ mi+ - 360° 360° 3 kt METAR LFCK 280100Z AUTO 36003KT 320V030 CAVOK 14/11 Q1021
2:30 am
V
59 °F 6¼ mi+ - 340° 340° 3 kt METAR LFCK 280030Z AUTO 34003KT 320V020 CAVOK 15/11 Q1021
2:00 am
V
61 °F 6¼ mi+ - 340° 340° 3 kt METAR LFCK 280000Z AUTO 34003KT 310V010 CAVOK 16/12 Q1022
1:30 am
V
63 °F 6¼ mi+ - 330° 330° 4 kt METAR LFCK 272330Z AUTO 33004KT 9999 FEW048 17/12 Q1022
1:00 am
V
64 °F 6¼ mi+ - 310° 310° 4 kt METAR LFCK 272300Z AUTO 31004KT CAVOK 18/12 Q1022
12:30 am
V
66 °F 6¼ mi+ - 290° 290° 7 kt METAR LFCK 272230Z AUTO 29007KT CAVOK 19/12 Q1022
12:00 am
V
68 °F 6¼ mi+ - 290° 290° 9 kt METAR LFCK 272200Z AUTO 29009KT CAVOK 20/12 Q1022

27. Mai 2022

Uhrzeit Code Wetter Temp. Sichtweite Wolkendecke Wind METAR/SPECI
11:30 pm
V
70 °F 6¼ mi+ - 300° 300° 10 kt METAR LFCK 272130Z AUTO 30010KT CAVOK 21/12 Q1022
11:00 pm
V
72 °F 6¼ mi+ - 290° 290° 11 kt METAR LFCK 272100Z AUTO 29011KT CAVOK 22/12 Q1022 NOSIG
10:30 pm
V
72 °F 6¼ mi+ - 290° 290° 11 kt METAR LFCK 272030Z AUTO 29011KT CAVOK 22/13 Q1022 NOSIG
10:00 pm
V
72 °F 6¼ mi+ - 280° 280° 9 kt METAR LFCK 272000Z AUTO 28009KT CAVOK 22/13 Q1022 NOSIG
9:30 pm
V
73 °F 6¼ mi+ - 280° 280° 10 kt METAR LFCK 271930Z AUTO 28010KT CAVOK 23/13 Q1022 NOSIG
9:00 pm
V
73 °F 6¼ mi+ - 290° 290° 11 kt METAR LFCK 271900Z AUTO 29011KT CAVOK 23/13 Q1022 NOSIG
8:30 pm
V
73 °F 6¼ mi+ - 280° 280° 13 kt METAR LFCK 271830Z AUTO 28013KT CAVOK 23/13 Q1022 NOSIG
8:00 pm
V
75 °F 6¼ mi+ - 290° 290° 12 kt METAR LFCK 271800Z AUTO 29012KT CAVOK 24/13 Q1022 NOSIG
7:30 pm
V
75 °F 6¼ mi+ - 280° 280° 15 kt METAR LFCK 271730Z AUTO 28015KT CAVOK 24/13 Q1021 NOSIG
7:00 pm
V
75 °F 6¼ mi+ - 280° 280° 13 kt METAR LFCK 271700Z AUTO 28013KT CAVOK 24/13 Q1022 NOSIG
6:30 pm
V
77 °F 6¼ mi+ - 280° 280° 13 kt METAR LFCK 271630Z AUTO 28013KT CAVOK 25/13 Q1022 NOSIG
6:00 pm
V
77 °F 6¼ mi+ - 280° 280° 13 kt METAR LFCK 271600Z AUTO 28013KT 260V320 CAVOK 25/13 Q1022 NOSIG
5:30 pm
V
77 °F 6¼ mi+ - 280° 280° 12 kt METAR LFCK 271530Z AUTO 28012KT CAVOK 25/13 Q1022 NOSIG
5:00 pm
V
75 °F 6¼ mi+ - 280° 280° 13 kt METAR LFCK 271500Z AUTO 28013KT CAVOK 24/12 Q1022 NOSIG
4:30 pm
V
75 °F 6¼ mi+ - 280° 280° 12 kt METAR LFCK 271430Z AUTO 28012KT CAVOK 24/12 Q1023 NOSIG
4:00 pm
V
75 °F 6¼ mi+ 4.800 ft 290° 290° 9 kt METAR LFCK 271400Z AUTO 29009KT 260V340 9999 BKN048 24/12 Q1023 NOSIG
3:30 pm
V
73 °F 6¼ mi+ 4.600 ft 290° 290° 11 kt METAR LFCK 271330Z AUTO 29011KT 9999 BKN046 23/12 Q1024 NOSIG
3:00 pm
V
73 °F 6¼ mi+ 4.500 ft 300° 300° 14 kt METAR LFCK 271300Z AUTO 30014KT 270V330 9999 BKN045 BKN052 23/11 Q1024 NOSIG
2:30 pm
V
72 °F 6¼ mi+ 4.300 ft 280° 280° 11 kt METAR LFCK 271230Z AUTO 28011KT 9999 BKN043 22/11 Q1024 NOSIG
2:00 pm
V
72 °F 6¼ mi+ 4.100 ft 290° 290° 12 kt METAR LFCK 271200Z AUTO 29012KT 260V320 9999 BKN041 BKN047 22/11 Q1024 NOSIG
1:30 pm
V
70 °F 6¼ mi+ 4.200 ft 290° 290° 10 kt METAR LFCK 271130Z AUTO 29010KT 250V330 9999 OVC042 21/11 Q1025 NOSIG
1:00 pm
V
70 °F 6¼ mi+ 3.800 ft 300° 300° 12 kt METAR LFCK 271100Z AUTO 30012KT 9999 BKN038 BKN045 21/12 Q1025 NOSIG
12:30 pm
V
68 °F 6¼ mi+ 4.100 ft 300° 300° 12 kt METAR LFCK 271030Z AUTO 30012KT 9999 SCT034 OVC041 20/12 Q1025 NOSIG
12:00 pm
V
68 °F 6¼ mi+ 3.800 ft 310° 310° 11 kt METAR LFCK 271000Z AUTO 31011KT 280V340 9999 SCT031 OVC038 20/12 Q1025 NOSIG
11:30 am
V
66 °F 6¼ mi+ 3.700 ft 300° 300° 12 kt METAR LFCK 270930Z AUTO 30012KT 9999 SCT028 BKN037 19/12 Q1025 NOSIG
11:00 am
V
66 °F 6¼ mi+ - 300° 300° 13 kt METAR LFCK 270900Z AUTO 30013KT 270V330 9999 SCT024 19/12 Q1025 NOSIG
10:30 am
M
64 °F 6¼ mi+ 2.000 ft 310° 310° 11 kt METAR LFCK 270830Z AUTO 31011KT 9999 BKN020 BKN025 18/12 Q1026 NOSIG
10:00 am
M
63 °F 6¼ mi+ 1.800 ft 330° 330° 9 kt METAR LFCK 270800Z AUTO 33009KT 280V350 9999 BKN018 17/12 Q1026 NOSIG
9:30 am
M
61 °F 6¼ mi+ 1.700 ft 320° 320° 8 kt METAR LFCK 270730Z AUTO 32008KT 9999 BKN017 16/12 Q1026 NOSIG
9:00 am
M
61 °F 6¼ mi+ 1.800 ft 310° 310° 8 kt METAR LFCK 270700Z AUTO 31008KT 9999 OVC018 16/12 Q1026 NOSIG
8:30 am
M
59 °F 6¼ mi+ 1.700 ft 300° 300° 8 kt METAR LFCK 270630Z AUTO 30008KT 270V330 9999 OVC017 15/12 Q1026 NOSIG
8:00 am
M
59 °F 6¼ mi+ 1.700 ft 280° 280° 6 kt METAR LFCK 270600Z AUTO 28006KT 9999 OVC017 15/12 Q1026 NOSIG
7:30 am
M
57 °F 6¼ mi+ 1.700 ft 290° 290° 5 kt METAR LFCK 270530Z AUTO 29005KT 9999 BKN017 OVC050 14/12 Q1026 NOSIG
7:00 am
M
57 °F 6¼ mi+ 1.800 ft 280° 280° 6 kt METAR LFCK 270500Z AUTO 28006KT 9999 OVC018 14/12 Q1026
6:30 am
M
57 °F 6¼ mi+ 1.800 ft 280° 280° 5 kt METAR LFCK 270430Z AUTO 28005KT 9999 BKN018 OVC050 14/11 Q1026
6:00 am
M
57 °F 6¼ mi+ 1.900 ft 280° 280° 6 kt METAR LFCK 270400Z AUTO 28006KT 9999 BKN019 OVC050 14/12 Q1026
5:30 am
V
57 °F 6¼ mi+ 5.200 ft 270° 270° 6 kt METAR LFCK 270330Z AUTO 27006KT 9999 FEW020 OVC052 14/11 Q1026
5:00 am
V
57 °F 6¼ mi+ - 280° 280° 6 kt METAR LFCK 270300Z AUTO 28006KT CAVOK 14/11 Q1026
4:30 am
V
57 °F 6¼ mi+ - 280° 280° 6 kt METAR LFCK 270230Z AUTO 28006KT CAVOK 14/11 Q1026
4:00 am
V
59 °F 6¼ mi+ - 280° 280° 7 kt METAR LFCK 270200Z AUTO 28007KT CAVOK 15/12 Q1026
3:30 am
V
59 °F 6¼ mi+ 4.900 ft 280° 280° 5 kt METAR LFCK 270130Z AUTO 28005KT 9999 OVC049 15/12 Q1026
3:00 am
V
59 °F 6¼ mi+ - 270° 270° 5 kt METAR LFCK 270100Z AUTO 27005KT CAVOK 15/12 Q1026
2:30 am
V
61 °F 6¼ mi+ - 300° 300° 6 kt METAR LFCK 270030Z AUTO 30006KT CAVOK 16/12 Q1026
2:00 am
V
61 °F 6¼ mi+ - 300° 300° 6 kt METAR LFCK 270000Z AUTO 30006KT CAVOK 16/12 Q1027
1:30 am
V
61 °F 6¼ mi+ - 300° 300° 6 kt METAR LFCK 262330Z AUTO 30006KT CAVOK 16/12 Q1027
1:00 am
V
61 °F 6¼ mi+ - 280° 280° 6 kt METAR LFCK 262300Z AUTO 28006KT CAVOK 16/12 Q1027
12:30 am
V
61 °F 6¼ mi+ - 300° 300° 6 kt METAR LFCK 262230Z AUTO 30006KT CAVOK 16/12 Q1027
12:00 am
V
63 °F 6¼ mi+ - 290° 290° 6 kt METAR LFCK 262200Z AUTO 29006KT CAVOK 17/12 Q1027

26. Mai 2022

Uhrzeit Code Wetter Temp. Sichtweite Wolkendecke Wind METAR/SPECI
11:30 pm
V
63 °F 6¼ mi+ - 290° 290° 6 kt METAR LFCK 262130Z AUTO 29006KT CAVOK 17/12 Q1027
11:00 pm
V
63 °F 6¼ mi+ - 280° 280° 5 kt METAR LFCK 262100Z AUTO 28005KT CAVOK 17/11 Q1027 NOSIG
10:30 pm
V
63 °F 6¼ mi+ - 300° 300° 6 kt METAR LFCK 262030Z AUTO 30006KT CAVOK 17/11 Q1027 NOSIG
10:00 pm
V
63 °F 6¼ mi+ - 300° 300° 8 kt METAR LFCK 262000Z AUTO 30008KT CAVOK 17/11 Q1027 NOSIG
9:30 pm
V
64 °F 6¼ mi+ - 300° 300° 9 kt METAR LFCK 261930Z AUTO 30009KT CAVOK 18/11 Q1027 NOSIG
9:00 pm
V
64 °F 6¼ mi+ - 300° 300° 8 kt METAR LFCK 261900Z AUTO 30008KT CAVOK 18/11 Q1026 NOSIG
8:30 pm
V
64 °F 6¼ mi+ - 300° 300° 10 kt METAR LFCK 261830Z AUTO 30010KT CAVOK 18/11 Q1026 NOSIG
8:00 pm
V
64 °F 6¼ mi+ - 300° 300° 11 kt METAR LFCK 261800Z AUTO 30011KT CAVOK 18/11 Q1026 NOSIG
7:30 pm
V
64 °F 6¼ mi+ 5.400 ft 300° 300° 13 kt METAR LFCK 261730Z AUTO 30013KT 9999 FEW031 BKN054 18/11 Q1026 NOSIG
7:00 pm
V
64 °F 6¼ mi+ - 300° 300° 14 kt METAR LFCK 261700Z AUTO 30014KT CAVOK 18/11 Q1026 NOSIG
6:30 pm
V
64 °F 6¼ mi+ 5.400 ft 290° 290° 13 kt METAR LFCK 261630Z AUTO 29013KT 9999 FEW028 OVC054 18/11 Q1026 NOSIG
6:00 pm
V
64 °F 6¼ mi+ 5.200 ft 290° 290° 13 kt METAR LFCK 261600Z AUTO 29013KT 9999 FEW042 OVC052 18/11 Q1026 NOSIG
5:30 pm
V
64 °F 6¼ mi+ 3.600 ft 300° 300° 17 kt METAR LFCK 261530Z AUTO 30017KT 9999 FEW028 BKN036 OVC052 18/11 Q1026 NOSIG
5:00 pm
V
66 °F 6¼ mi+ 5.200 ft 300° 300° 13 kt METAR LFCK 261500Z AUTO 30013KT 270V330 9999 SCT033 OVC052 19/10 Q1027 NOSIG
Ältere Daten

Laden Sie unsere App herunter

Einfacher Zugriff auf das gesamte Flugwetter auf Ihrem Mobiltelefon und Tablet.
Mit vielen Funktionen, die auf der Website nicht verfügbar sind, wie Offline-Unterstützung und eine persönliche Flughafenliste.

Wir und Dritte verfolgen dein Internetverhalten auf unserer Website mit Cookies. Wenn du fortfährst, gehen wir davon aus, dass du mit unserer Cookie-Richtlinie einverstanden bist. Mehr erfahren